sensor_id;sensor_type;location;lat;lon;timestamp;temperature;humidity
68609;SHT31;55581;46.718;7.690;2023-03-03T00:00:56;0.54;86.37
68609;SHT31;55581;46.718;7.690;2023-03-03T00:03:23;0.60;86.14
68609;SHT31;55581;46.718;7.690;2023-03-03T00:05:50;0.50;85.69
68609;SHT31;55581;46.718;7.690;2023-03-03T00:08:16;0.47;87.17
68609;SHT31;55581;46.718;7.690;2023-03-03T00:10:42;0.44;87.15
68609;SHT31;55581;46.718;7.690;2023-03-03T00:13:22;0.43;87.81
68609;SHT31;55581;46.718;7.690;2023-03-03T00:15:47;0.43;88.32
68609;SHT31;55581;46.718;7.690;2023-03-03T00:18:18;0.46;88.02
68609;SHT31;55581;46.718;7.690;2023-03-03T00:20:54;0.47;88.26
68609;SHT31;55581;46.718;7.690;2023-03-03T00:25:49;0.44;86.43
68609;SHT31;55581;46.718;7.690;2023-03-03T00:28:21;0.40;86.16
68609;SHT31;55581;46.718;7.690;2023-03-03T00:30:47;0.37;85.59
68609;SHT31;55581;46.718;7.690;2023-03-03T00:33:38;0.30;86.28
68609;SHT31;55581;46.718;7.690;2023-03-03T00:36:37;0.33;87.35
68609;SHT31;55581;46.718;7.690;2023-03-03T00:41:40;0.32;87.00
68609;SHT31;55581;46.718;7.690;2023-03-03T00:44:30;0.29;87.17
68609;SHT31;55581;46.718;7.690;2023-03-03T00:47:23;0.30;87.06
68609;SHT31;55581;46.718;7.690;2023-03-03T00:49:48;0.26;86.43
68609;SHT31;55581;46.718;7.690;2023-03-03T00:52:15;0.20;85.86
68609;SHT31;55581;46.718;7.690;2023-03-03T00:54:41;0.23;87.04
68609;SHT31;55581;46.718;7.690;2023-03-03T00:57:07;0.09;85.78
68609;SHT31;55581;46.718;7.690;2023-03-03T00:59:32;0.06;85.86
68609;SHT31;55581;46.718;7.690;2023-03-03T01:01:57;0.01;86.49
68609;SHT31;55581;46.718;7.690;2023-03-03T01:04:23;0.01;88.78
68609;SHT31;55581;46.718;7.690;2023-03-03T01:06:48;0.09;87.76
68609;SHT31;55581;46.718;7.690;2023-03-03T01:09:14;0.02;86.50
68609;SHT31;55581;46.718;7.690;2023-03-03T01:11:39;0.09;88.54
68609;SHT31;55581;46.718;7.690;2023-03-03T01:14:05;0.02;86.29
68609;SHT31;55581;46.718;7.690;2023-03-03T01:16:33;0.03;86.51
68609;SHT31;55581;46.718;7.690;2023-03-03T01:18:58;0.08;87.64
68609;SHT31;55581;46.718;7.690;2023-03-03T01:21:24;0.06;87.13
68609;SHT31;55581;46.718;7.690;2023-03-03T01:23:49;0.02;86.78
68609;SHT31;55581;46.718;7.690;2023-03-03T01:26:14;0.01;87.33
68609;SHT31;55581;46.718;7.690;2023-03-03T01:28:42;-0.03;86.73
68609;SHT31;55581;46.718;7.690;2023-03-03T01:31:08;-0.12;86.93
68609;SHT31;55581;46.718;7.690;2023-03-03T01:33:34;-0.15;88.08
68609;SHT31;55581;46.718;7.690;2023-03-03T01:36:00;-0.11;88.24
68609;SHT31;55581;46.718;7.690;2023-03-03T01:38:25;-0.18;88.09
68609;SHT31;55581;46.718;7.690;2023-03-03T01:40:56;-0.16;89.20
68609;SHT31;55581;46.718;7.690;2023-03-03T01:43:24;-0.12;89.96
68609;SHT31;55581;46.718;7.690;2023-03-03T01:48:33;-0.21;89.59
68609;SHT31;55581;46.718;7.690;2023-03-03T01:51:09;-0.19;88.64
68609;SHT31;55581;46.718;7.690;2023-03-03T01:53:45;-0.22;88.39
68609;SHT31;55581;46.718;7.690;2023-03-03T01:56:12;-0.21;89.24
68609;SHT31;55581;46.718;7.690;2023-03-03T01:58:52;-0.18;89.83
68609;SHT31;55581;46.718;7.690;2023-03-03T02:01:22;-0.16;90.43
68609;SHT31;55581;46.718;7.690;2023-03-03T02:03:49;-0.13;90.91
68609;SHT31;55581;46.718;7.690;2023-03-03T02:06:19;-0.13;91.14
68609;SHT31;55581;46.718;7.690;2023-03-03T02:08:58;-0.15;90.73
68609;SHT31;55581;46.718;7.690;2023-03-03T02:11:25;-0.16;91.01
68609;SHT31;55581;46.718;7.690;2023-03-03T02:13:51;-0.15;90.56
68609;SHT31;55581;46.718;7.690;2023-03-03T02:16:17;-0.15;89.93
68609;SHT31;55581;46.718;7.690;2023-03-03T02:18:43;-0.25;88.18
68609;SHT31;55581;46.718;7.690;2023-03-03T02:21:15;-0.33;89.77
68609;SHT31;55581;46.718;7.690;2023-03-03T02:23:54;-0.30;90.14
68609;SHT31;55581;46.718;7.690;2023-03-03T02:26:23;-0.36;90.28
68609;SHT31;55581;46.718;7.690;2023-03-03T02:28:49;-0.34;90.45
68609;SHT31;55581;46.718;7.690;2023-03-03T02:31:18;-0.37;90.24
68609;SHT31;55581;46.718;7.690;2023-03-03T02:33:47;-0.34;90.06
68609;SHT31;55581;46.718;7.690;2023-03-03T02:36:27;-0.30;89.87
68609;SHT31;55581;46.718;7.690;2023-03-03T02:41:38;-0.29;90.14
68609;SHT31;55581;46.718;7.690;2023-03-03T02:44:13;-0.26;90.11
68609;SHT31;55581;46.718;7.690;2023-03-03T02:46:44;-0.30;88.34
68609;SHT31;55581;46.718;7.690;2023-03-03T02:49:12;-0.30;88.36
68609;SHT31;55581;46.718;7.690;2023-03-03T02:51:41;-0.39;88.50
68609;SHT31;55581;46.718;7.690;2023-03-03T02:54:08;-0.43;88.90
68609;SHT31;55581;46.718;7.690;2023-03-03T02:56:36;-0.53;87.82
68609;SHT31;55581;46.718;7.690;2023-03-03T02:59:03;-0.54;88.65
68609;SHT31;55581;46.718;7.690;2023-03-03T03:01:29;-0.54;88.19
68609;SHT31;55581;46.718;7.690;2023-03-03T03:03:56;-0.64;88.32
68609;SHT31;55581;46.718;7.690;2023-03-03T03:06:22;-0.61;88.85
68609;SHT31;55581;46.718;7.690;2023-03-03T03:08:48;-0.73;89.21
68609;SHT31;55581;46.718;7.690;2023-03-03T03:11:13;-0.80;90.07
68609;SHT31;55581;46.718;7.690;2023-03-03T03:13:43;-0.71;89.64
68609;SHT31;55581;46.718;7.690;2023-03-03T03:16:11;-0.77;89.75
68609;SHT31;55581;46.718;7.690;2023-03-03T03:18:37;-0.70;90.41
68609;SHT31;55581;46.718;7.690;2023-03-03T03:21:10;-0.64;91.25
68609;SHT31;55581;46.718;7.690;2023-03-03T03:23:35;-0.66;90.66
68609;SHT31;55581;46.718;7.690;2023-03-03T03:26:02;-0.67;90.81
68609;SHT31;55581;46.718;7.690;2023-03-03T03:28:29;-0.64;92.48
68609;SHT31;55581;46.718;7.690;2023-03-03T03:30:55;-0.60;92.54
68609;SHT31;55581;46.718;7.690;2023-03-03T03:33:21;-0.57;92.28
68609;SHT31;55581;46.718;7.690;2023-03-03T03:35:47;-0.50;92.40
68609;SHT31;55581;46.718;7.690;2023-03-03T03:38:13;-0.56;91.83
68609;SHT31;55581;46.718;7.690;2023-03-03T03:40:39;-0.54;92.18
68609;SHT31;55581;46.718;7.690;2023-03-03T03:43:05;-0.57;92.38
68609;SHT31;55581;46.718;7.690;2023-03-03T03:45:30;-0.58;92.45
68609;SHT31;55581;46.718;7.690;2023-03-03T03:47:56;-0.56;92.20
68609;SHT31;55581;46.718;7.690;2023-03-03T03:50:21;-0.53;91.81
68609;SHT31;55581;46.718;7.690;2023-03-03T03:52:47;-0.58;91.56
68609;SHT31;55581;46.718;7.690;2023-03-03T03:55:12;-0.60;91.24
68609;SHT31;55581;46.718;7.690;2023-03-03T03:57:41;-0.58;90.32
68609;SHT31;55581;46.718;7.690;2023-03-03T04:00:08;-0.73;89.74
68609;SHT31;55581;46.718;7.690;2023-03-03T04:02:35;-0.76;90.24
68609;SHT31;55581;46.718;7.690;2023-03-03T04:05:00;-0.84;90.45
68609;SHT31;55581;46.718;7.690;2023-03-03T04:07:26;-0.74;90.55
68609;SHT31;55581;46.718;7.690;2023-03-03T04:09:51;-0.77;89.75
68609;SHT31;55581;46.718;7.690;2023-03-03T04:12:19;-0.83;90.62
68609;SHT31;55581;46.718;7.690;2023-03-03T04:14:46;-0.89;90.74
68609;SHT31;55581;46.718;7.690;2023-03-03T04:17:18;-0.89;90.76
68609;SHT31;55581;46.718;7.690;2023-03-03T04:19:44;-0.89;91.61
68609;SHT31;55581;46.718;7.690;2023-03-03T04:22:10;-0.88;91.63
68609;SHT31;55581;46.718;7.690;2023-03-03T04:24:38;-0.83;90.98
68609;SHT31;55581;46.718;7.690;2023-03-03T04:27:03;-0.84;90.39
68609;SHT31;55581;46.718;7.690;2023-03-03T04:29:29;-0.83;91.61
68609;SHT31;55581;46.718;7.690;2023-03-03T04:31:54;-0.85;90.82
68609;SHT31;55581;46.718;7.690;2023-03-03T04:34:19;-0.87;91.63
68609;SHT31;55581;46.718;7.690;2023-03-03T04:36:45;-0.83;92.11
68609;SHT31;55581;46.718;7.690;2023-03-03T04:39:10;-0.84;91.80
68609;SHT31;55581;46.718;7.690;2023-03-03T04:41:36;-0.84;92.10
68609;SHT31;55581;46.718;7.690;2023-03-03T04:44:01;-0.83;92.23
68609;SHT31;55581;46.718;7.690;2023-03-03T04:46:27;-0.84;91.19
68609;SHT31;55581;46.718;7.690;2023-03-03T04:48:52;-0.84;91.15
68609;SHT31;55581;46.718;7.690;2023-03-03T04:51:17;-0.78;91.08
68609;SHT31;55581;46.718;7.690;2023-03-03T04:53:43;-0.87;89.90
68609;SHT31;55581;46.718;7.690;2023-03-03T04:56:11;-0.91;89.95
68609;SHT31;55581;46.718;7.690;2023-03-03T04:58:36;-0.88;89.14
68609;SHT31;55581;46.718;7.690;2023-03-03T05:01:02;-0.88;88.92
68609;SHT31;55581;46.718;7.690;2023-03-03T05:03:27;-0.88;90.41
68609;SHT31;55581;46.718;7.690;2023-03-03T05:05:55;-0.87;89.62
68609;SHT31;55581;46.718;7.690;2023-03-03T05:08:21;-0.87;87.51
68609;SHT31;55581;46.718;7.690;2023-03-03T05:10:51;-0.95;88.92
68609;SHT31;55581;46.718;7.690;2023-03-03T05:13:16;-0.89;89.93
68609;SHT31;55581;46.718;7.690;2023-03-03T05:15:41;-0.84;90.49
68609;SHT31;55581;46.718;7.690;2023-03-03T05:18:09;-0.85;90.07
68609;SHT31;55581;46.718;7.690;2023-03-03T05:20:39;-0.87;89.62
68609;SHT31;55581;46.718;7.690;2023-03-03T05:23:05;-0.91;89.77
68609;SHT31;55581;46.718;7.690;2023-03-03T05:25:30;-0.92;90.80
68609;SHT31;55581;46.718;7.690;2023-03-03T05:27:58;-0.89;90.46
68609;SHT31;55581;46.718;7.690;2023-03-03T05:30:24;-0.89;90.18
68609;SHT31;55581;46.718;7.690;2023-03-03T05:32:49;-0.92;90.08
68609;SHT31;55581;46.718;7.690;2023-03-03T05:35:14;-0.95;91.03
68609;SHT31;55581;46.718;7.690;2023-03-03T05:37:40;-0.91;90.98
68609;SHT31;55581;46.718;7.690;2023-03-03T05:40:12;-0.91;89.96
68609;SHT31;55581;46.718;7.690;2023-03-03T05:42:38;-0.92;90.13
68609;SHT31;55581;46.718;7.690;2023-03-03T05:45:04;-0.78;89.22
68609;SHT31;55581;46.718;7.690;2023-03-03T05:47:32;-0.87;87.58
68609;SHT31;55581;46.718;7.690;2023-03-03T05:49:57;-1.12;87.82
68609;SHT31;55581;46.718;7.690;2023-03-03T05:52:23;-1.16;89.67
68609;SHT31;55581;46.718;7.690;2023-03-03T05:54:48;-1.17;90.71
68609;SHT31;55581;46.718;7.690;2023-03-03T05:57:14;-1.19;91.38
68609;SHT31;55581;46.718;7.690;2023-03-03T05:59:40;-1.13;91.35
68609;SHT31;55581;46.718;7.690;2023-03-03T06:02:05;-1.13;91.56
68609;SHT31;55581;46.718;7.690;2023-03-03T06:04:31;-1.11;92.01
68609;SHT31;55581;46.718;7.690;2023-03-03T06:06:58;-1.11;92.28
68609;SHT31;55581;46.718;7.690;2023-03-03T06:09:24;-1.09;92.43
68609;SHT31;55581;46.718;7.690;2023-03-03T06:11:51;-1.09;92.77
68609;SHT31;55581;46.718;7.690;2023-03-03T06:14:20;-1.16;89.08
68609;SHT31;55581;46.718;7.690;2023-03-03T06:16:46;-1.17;89.02
68609;SHT31;55581;46.718;7.690;2023-03-03T06:19:12;-1.12;90.23
68609;SHT31;55581;46.718;7.690;2023-03-03T06:21:38;-1.09;91.08
68609;SHT31;55581;46.718;7.690;2023-03-03T06:24:06;-1.05;90.37
68609;SHT31;55581;46.718;7.690;2023-03-03T06:26:32;-1.08;89.71
68609;SHT31;55581;46.718;7.690;2023-03-03T06:28:58;-1.06;89.52
68609;SHT31;55581;46.718;7.690;2023-03-03T06:31:24;-1.08;90.50
68609;SHT31;55581;46.718;7.690;2023-03-03T06:33:50;-0.98;91.40
68609;SHT31;55581;46.718;7.690;2023-03-03T06:36:16;-0.89;91.41
68609;SHT31;55581;46.718;7.690;2023-03-03T06:38:42;-0.78;92.03
68609;SHT31;55581;46.718;7.690;2023-03-03T06:41:07;-0.70;91.09
68609;SHT31;55581;46.718;7.690;2023-03-03T06:43:34;-0.58;91.17
68609;SHT31;55581;46.718;7.690;2023-03-03T06:46:00;-0.47;91.25
68609;SHT31;55581;46.718;7.690;2023-03-03T06:48:29;-0.36;91.67
68609;SHT31;55581;46.718;7.690;2023-03-03T06:51:02;-0.28;91.46
68609;SHT31;55581;46.718;7.690;2023-03-03T06:53:30;-0.23;91.57
68609;SHT31;55581;46.718;7.690;2023-03-03T06:55:59;-0.16;91.38
68609;SHT31;55581;46.718;7.690;2023-03-03T06:58:26;-0.12;90.93
68609;SHT31;55581;46.718;7.690;2023-03-03T07:00:56;-0.11;90.95
68609;SHT31;55581;46.718;7.690;2023-03-03T07:03:24;0.10;90.40
68609;SHT31;55581;46.718;7.690;2023-03-03T07:05:51;0.10;90.12
68609;SHT31;55581;46.718;7.690;2023-03-03T07:08:19;0.17;89.77
68609;SHT31;55581;46.718;7.690;2023-03-03T07:10:46;0.26;89.46
68609;SHT31;55581;46.718;7.690;2023-03-03T07:13:26;0.30;89.92
68609;SHT31;55581;46.718;7.690;2023-03-03T07:15:54;0.42;89.23
68609;SHT31;55581;46.718;7.690;2023-03-03T07:18:28;0.49;89.00
68609;SHT31;55581;46.718;7.690;2023-03-03T07:20:57;0.63;88.42
68609;SHT31;55581;46.718;7.690;2023-03-03T07:25:51;0.74;88.27
68609;SHT31;55581;46.718;7.690;2023-03-03T07:28:28;0.80;87.47
68609;SHT31;55581;46.718;7.690;2023-03-03T07:30:57;0.88;87.58
68609;SHT31;55581;46.718;7.690;2023-03-03T07:33:26;0.93;87.79
68609;SHT31;55581;46.718;7.690;2023-03-03T07:35:56;0.98;87.78
68609;SHT31;55581;46.718;7.690;2023-03-03T07:41:03;1.09;87.46
68609;SHT31;55581;46.718;7.690;2023-03-03T07:43:38;1.12;87.21
68609;SHT31;55581;46.718;7.690;2023-03-03T07:48:42;1.12;86.92
68609;SHT31;55581;46.718;7.690;2023-03-03T07:51:36;1.25;87.91
68609;SHT31;55581;46.718;7.690;2023-03-03T07:54:26;1.33;87.19
68609;SHT31;55581;46.718;7.690;2023-03-03T07:59:37;1.58;86.68
68609;SHT31;55581;46.718;7.690;2023-03-03T08:02:15;1.71;86.27
68609;SHT31;55581;46.718;7.690;2023-03-03T08:04:50;1.77;85.61
68609;SHT31;55581;46.718;7.690;2023-03-03T08:07:19;1.79;86.55
68609;SHT31;55581;46.718;7.690;2023-03-03T08:14:43;1.88;84.96
68609;SHT31;55581;46.718;7.690;2023-03-03T08:17:22;1.75;85.76
68609;SHT31;55581;46.718;7.690;2023-03-03T08:19:49;1.85;85.78
68609;SHT31;55581;46.718;7.690;2023-03-03T08:22:28;1.81;85.76
68609;SHT31;55581;46.718;7.690;2023-03-03T08:24:55;1.77;85.96
68609;SHT31;55581;46.718;7.690;2023-03-03T08:27:20;1.86;86.27
68609;SHT31;55581;46.718;7.690;2023-03-03T08:29:46;1.91;85.53
68609;SHT31;55581;46.718;7.690;2023-03-03T08:32:11;1.89;85.25
68609;SHT31;55581;46.718;7.690;2023-03-03T08:34:37;1.71;86.30
68609;SHT31;55581;46.718;7.690;2023-03-03T08:37:03;1.89;85.79
68609;SHT31;55581;46.718;7.690;2023-03-03T08:39:28;1.86;85.41
68609;SHT31;55581;46.718;7.690;2023-03-03T08:41:54;1.91;86.26
68609;SHT31;55581;46.718;7.690;2023-03-03T08:44:19;1.79;85.12
68609;SHT31;55581;46.718;7.690;2023-03-03T08:46:47;1.81;86.30
68609;SHT31;55581;46.718;7.690;2023-03-03T08:49:12;1.95;85.67
68609;SHT31;55581;46.718;7.690;2023-03-03T08:51:38;1.98;84.36
68609;SHT31;55581;46.718;7.690;2023-03-03T08:54:04;1.82;84.36
68609;SHT31;55581;46.718;7.690;2023-03-03T08:56:32;1.79;85.15
68609;SHT31;55581;46.718;7.690;2023-03-03T08:58:57;1.58;85.49
68609;SHT31;55581;46.718;7.690;2023-03-03T09:01:23;1.61;85.75
68609;SHT31;55581;46.718;7.690;2023-03-03T09:03:48;1.58;85.68
68609;SHT31;55581;46.718;7.690;2023-03-03T09:06:13;1.65;85.98
68609;SHT31;55581;46.718;7.690;2023-03-03T09:08:39;1.81;84.73
68609;SHT31;55581;46.718;7.690;2023-03-03T09:11:24;1.79;83.91
68609;SHT31;55581;46.718;7.690;2023-03-03T09:14:05;1.82;82.64
68609;SHT31;55581;46.718;7.690;2023-03-03T09:16:37;1.74;83.31
68609;SHT31;55581;46.718;7.690;2023-03-03T09:19:19;1.86;83.66
68609;SHT31;55581;46.718;7.690;2023-03-03T09:21:46;1.75;82.52
68609;SHT31;55581;46.718;7.690;2023-03-03T09:24:29;1.84;82.79
68609;SHT31;55581;46.718;7.690;2023-03-03T09:26:56;1.84;82.58
68609;SHT31;55581;46.718;7.690;2023-03-03T09:29:27;1.88;82.12
68609;SHT31;55581;46.718;7.690;2023-03-03T09:31:57;1.97;82.66
68609;SHT31;55581;46.718;7.690;2023-03-03T09:34:37;2.01;82.73
68609;SHT31;55581;46.718;7.690;2023-03-03T09:37:35;2.08;82.40
68609;SHT31;55581;46.718;7.690;2023-03-03T09:40:38;2.19;81.72
68609;SHT31;55581;46.718;7.690;2023-03-03T09:46:16;2.44;80.21
68609;SHT31;55581;46.718;7.690;2023-03-03T10:19:13;2.91;78.23
68609;SHT31;55581;46.718;7.690;2023-03-03T10:24:01;3.22;77.58
68609;SHT31;55581;46.718;7.690;2023-03-03T10:26:47;3.30;77.95
68609;SHT31;55581;46.718;7.690;2023-03-03T10:46:42;3.82;76.67
68609;SHT31;55581;46.718;7.690;2023-03-03T10:54:59;4.25;75.56
68609;SHT31;55581;46.718;7.690;2023-03-03T11:00:45;4.50;74.61
68609;SHT31;55581;46.718;7.690;2023-03-03T11:06:14;4.75;75.09
68609;SHT31;55581;46.718;7.690;2023-03-03T11:29:12;6.03;69.60
68609;SHT31;55581;46.718;7.690;2023-03-03T11:37:26;5.42;70.91
68609;SHT31;55581;46.718;7.690;2023-03-03T11:39:56;5.39;71.44
68609;SHT31;55581;46.718;7.690;2023-03-03T11:42:38;5.27;71.79
68609;SHT31;55581;46.718;7.690;2023-03-03T11:45:22;5.39;71.34
68609;SHT31;55581;46.718;7.690;2023-03-03T11:48:12;5.33;72.58
68609;SHT31;55581;46.718;7.690;2023-03-03T11:51:10;5.39;71.08
68609;SHT31;55581;46.718;7.690;2023-03-03T12:01:35;5.53;72.36
68609;SHT31;55581;46.718;7.690;2023-03-03T12:04:08;5.78;70.84
68609;SHT31;55581;46.718;7.690;2023-03-03T12:12:32;6.23;70.88
68609;SHT31;55581;46.718;7.690;2023-03-03T12:24:03;6.22;69.71
68609;SHT31;55581;46.718;7.690;2023-03-03T12:29:25;6.46;70.77
68609;SHT31;55581;46.718;7.690;2023-03-03T12:32:02;6.28;72.58
68609;SHT31;55581;46.718;7.690;2023-03-03T12:34:47;6.37;70.44
68609;SHT31;55581;46.718;7.690;2023-03-03T12:40:25;6.57;68.51
68609;SHT31;55581;46.718;7.690;2023-03-03T12:45:47;6.47;70.82
68609;SHT31;55581;46.718;7.690;2023-03-03T12:48:27;6.53;69.43
68609;SHT31;55581;46.718;7.690;2023-03-03T12:51:11;6.60;71.19
68609;SHT31;55581;46.718;7.690;2023-03-03T12:56:09;7.19;68.61
68609;SHT31;55581;46.718;7.690;2023-03-03T13:01:51;6.98;67.98
68609;SHT31;55581;46.718;7.690;2023-03-03T13:04:35;6.74;69.67
68609;SHT31;55581;46.718;7.690;2023-03-03T13:20:28;7.06;69.14
68609;SHT31;55581;46.718;7.690;2023-03-03T13:26:02;7.24;68.61
68609;SHT31;55581;46.718;7.690;2023-03-03T13:28:35;7.36;68.51
68609;SHT31;55581;46.718;7.690;2023-03-03T13:31:11;7.36;68.16
68609;SHT31;55581;46.718;7.690;2023-03-03T13:33:40;7.50;69.25
68609;SHT31;55581;46.718;7.690;2023-03-03T13:36:12;7.75;67.49
68609;SHT31;55581;46.718;7.690;2023-03-03T13:38:48;7.66;66.64
68609;SHT31;55581;46.718;7.690;2023-03-03T13:41:24;7.34;67.89
68609;SHT31;55581;46.718;7.690;2023-03-03T13:44:04;7.13;68.65
68609;SHT31;55581;46.718;7.690;2023-03-03T13:46:40;7.11;69.22
68609;SHT31;55581;46.718;7.690;2023-03-03T13:49:34;6.87;70.37
68609;SHT31;55581;46.718;7.690;2023-03-03T13:52:06;6.99;71.06
68609;SHT31;55581;46.718;7.690;2023-03-03T13:54:49;7.27;69.68
68609;SHT31;55581;46.718;7.690;2023-03-03T14:08:15;7.56;67.71
68609;SHT31;55581;46.718;7.690;2023-03-03T14:10:52;7.53;68.56
68609;SHT31;55581;46.718;7.690;2023-03-03T14:19:25;7.66;68.42
68609;SHT31;55581;46.718;7.690;2023-03-03T14:22:14;7.88;66.48
68609;SHT31;55581;46.718;7.690;2023-03-03T14:24:55;7.84;66.80
68609;SHT31;55581;46.718;7.690;2023-03-03T14:27:25;7.70;67.45
68609;SHT31;55581;46.718;7.690;2023-03-03T14:29:51;7.73;68.08
68609;SHT31;55581;46.718;7.690;2023-03-03T14:32:24;7.49;68.67
68609;SHT31;55581;46.718;7.690;2023-03-03T14:35:00;7.57;69.38
68609;SHT31;55581;46.718;7.690;2023-03-03T14:37:45;7.78;68.22
68609;SHT31;55581;46.718;7.690;2023-03-03T14:45:22;7.64;68.45
68609;SHT31;55581;46.718;7.690;2023-03-03T14:47:53;7.73;67.52
68609;SHT31;55581;46.718;7.690;2023-03-03T14:50:40;7.50;67.83
68609;SHT31;55581;46.718;7.690;2023-03-03T14:55:49;7.36;69.87
68609;SHT31;55581;46.718;7.690;2023-03-03T14:58:35;7.33;69.64
68609;SHT31;55581;46.718;7.690;2023-03-03T15:01:35;7.57;69.56
68609;SHT31;55581;46.718;7.690;2023-03-03T15:04:02;7.66;68.93
68609;SHT31;55581;46.718;7.690;2023-03-03T15:06:50;7.47;68.94
68609;SHT31;55581;46.718;7.690;2023-03-03T15:11:53;7.75;69.13
68609;SHT31;55581;46.718;7.690;2023-03-03T15:14:29;7.71;69.78
68609;SHT31;55581;46.718;7.690;2023-03-03T15:22:58;8.01;67.62
68609;SHT31;55581;46.718;7.690;2023-03-03T15:29:10;7.82;69.34
68609;SHT31;55581;46.718;7.690;2023-03-03T15:40:04;7.79;68.83
68609;SHT31;55581;46.718;7.690;2023-03-03T15:42:48;7.84;69.52
68609;SHT31;55581;46.718;7.690;2023-03-03T15:51:05;8.12;67.76
68609;SHT31;55581;46.718;7.690;2023-03-03T16:01:42;8.50;66.42
68609;SHT31;55581;46.718;7.690;2023-03-03T16:04:14;8.54;66.61
68609;SHT31;55581;46.718;7.690;2023-03-03T16:07:05;8.63;68.13
68609;SHT31;55581;46.718;7.690;2023-03-03T16:10:01;8.81;67.78
68609;SHT31;55581;46.718;7.690;2023-03-03T16:12:37;8.52;66.84
68609;SHT31;55581;46.718;7.690;2023-03-03T16:31:47;7.59;69.49
68609;SHT31;55581;46.718;7.690;2023-03-03T16:37:30;7.20;71.70
68609;SHT31;55581;46.718;7.690;2023-03-03T16:42:43;7.09;72.00
68609;SHT31;55581;46.718;7.690;2023-03-03T16:50:41;6.95;71.16
68609;SHT31;55581;46.718;7.690;2023-03-03T16:56:23;6.87;71.41
68609;SHT31;55581;46.718;7.690;2023-03-03T17:22:07;6.67;74.49
68609;SHT31;55581;46.718;7.690;2023-03-03T17:33:20;6.40;74.40
68609;SHT31;55581;46.718;7.690;2023-03-03T17:44:29;6.16;75.15
68609;SHT31;55581;46.718;7.690;2023-03-03T17:47:03;6.22;75.13
68609;SHT31;55581;46.718;7.690;2023-03-03T18:00:25;6.11;76.03
68609;SHT31;55581;46.718;7.690;2023-03-03T18:13:55;5.92;74.81
68609;SHT31;55581;46.718;7.690;2023-03-03T18:16:39;5.94;74.84
68609;SHT31;55581;46.718;7.690;2023-03-03T18:22:12;6.01;75.62
68609;SHT31;55581;46.718;7.690;2023-03-03T18:32:58;6.05;76.55
68609;SHT31;55581;46.718;7.690;2023-03-03T18:35:36;6.02;75.54
68609;SHT31;55581;46.718;7.690;2023-03-03T18:43:49;5.92;76.53
68609;SHT31;55581;46.718;7.690;2023-03-03T18:49:06;5.84;75.86
68609;SHT31;55581;46.718;7.690;2023-03-03T19:04:45;5.15;75.64
68609;SHT31;55581;46.718;7.690;2023-03-03T19:07:31;5.13;76.46
68609;SHT31;55581;46.718;7.690;2023-03-03T19:12:52;5.15;76.42
68609;SHT31;55581;46.718;7.690;2023-03-03T19:18:21;5.16;76.28
68609;SHT31;55581;46.718;7.690;2023-03-03T19:23:20;5.30;75.78
68609;SHT31;55581;46.718;7.690;2023-03-03T19:31:52;5.29;76.52
68609;SHT31;55581;46.718;7.690;2023-03-03T19:37:26;5.23;76.84
68609;SHT31;55581;46.718;7.690;2023-03-03T19:40:23;5.27;76.32
68609;SHT31;55581;46.718;7.690;2023-03-03T19:49:20;5.13;77.24
68609;SHT31;55581;46.718;7.690;2023-03-03T19:51:42;5.05;77.54
68609;SHT31;55581;46.718;7.690;2023-03-03T20:00:20;4.78;77.74
68609;SHT31;55581;46.718;7.690;2023-03-03T20:17:21;3.95;81.68
68609;SHT31;55581;46.718;7.690;2023-03-03T20:23:12;3.95;80.64
68609;SHT31;55581;46.718;7.690;2023-03-03T20:34:30;3.59;82.09
68609;SHT31;55581;46.718;7.690;2023-03-03T20:37:17;3.54;81.73
68609;SHT31;55581;46.718;7.690;2023-03-03T20:53:30;3.19;82.51
68609;SHT31;55581;46.718;7.690;2023-03-03T20:56:02;3.16;82.53
68609;SHT31;55581;46.718;7.690;2023-03-03T21:01:22;3.08;82.73
68609;SHT31;55581;46.718;7.690;2023-03-03T21:03:51;3.02;83.00
68609;SHT31;55581;46.718;7.690;2023-03-03T21:06:19;2.96;83.42
68609;SHT31;55581;46.718;7.690;2023-03-03T21:08:58;2.91;83.50
68609;SHT31;55581;46.718;7.690;2023-03-03T21:11:41;2.89;83.44
68609;SHT31;55581;46.718;7.690;2023-03-03T21:14:37;2.94;83.05
68609;SHT31;55581;46.718;7.690;2023-03-03T21:17:26;2.92;83.15
68609;SHT31;55581;46.718;7.690;2023-03-03T21:19:52;2.92;83.17
68609;SHT31;55581;46.718;7.690;2023-03-03T21:22:18;2.85;83.16
68609;SHT31;55581;46.718;7.690;2023-03-03T21:24:55;2.88;83.03
68609;SHT31;55581;46.718;7.690;2023-03-03T21:27:33;2.84;82.86
68609;SHT31;55581;46.718;7.690;2023-03-03T21:35:06;2.77;83.23
68609;SHT31;55581;46.718;7.690;2023-03-03T21:40:21;2.70;83.57
68609;SHT31;55581;46.718;7.690;2023-03-03T21:42:55;2.67;83.21
68609;SHT31;55581;46.718;7.690;2023-03-03T21:45:28;2.64;83.51
68609;SHT31;55581;46.718;7.690;2023-03-03T21:48:02;2.61;83.21
68609;SHT31;55581;46.718;7.690;2023-03-03T21:50:28;2.61;83.39
68609;SHT31;55581;46.718;7.690;2023-03-03T21:52:56;2.60;83.51
68609;SHT31;55581;46.718;7.690;2023-03-03T21:55:26;2.61;83.53
68609;SHT31;55581;46.718;7.690;2023-03-03T21:57:51;2.56;83.43
68609;SHT31;55581;46.718;7.690;2023-03-03T22:00:19;2.49;83.65
68609;SHT31;55581;46.718;7.690;2023-03-03T22:03:04;2.50;84.14
68609;SHT31;55581;46.718;7.690;2023-03-03T22:05:34;2.57;83.86
68609;SHT31;55581;46.718;7.690;2023-03-03T22:08:01;2.57;83.52
68609;SHT31;55581;46.718;7.690;2023-03-03T22:10:31;2.70;83.99
68609;SHT31;55581;46.718;7.690;2023-03-03T22:12:56;2.67;83.33
68609;SHT31;55581;46.718;7.690;2023-03-03T22:15:35;2.61;83.11
68609;SHT31;55581;46.718;7.690;2023-03-03T22:18:05;2.56;83.61
68609;SHT31;55581;46.718;7.690;2023-03-03T22:20:32;2.58;83.61
68609;SHT31;55581;46.718;7.690;2023-03-03T22:23:04;2.62;83.53
68609;SHT31;55581;46.718;7.690;2023-03-03T22:25:34;2.61;83.36
68609;SHT31;55581;46.718;7.690;2023-03-03T22:28:03;2.58;83.56
68609;SHT31;55581;46.718;7.690;2023-03-03T22:30:33;2.62;83.73
68609;SHT31;55581;46.718;7.690;2023-03-03T22:32:59;2.64;84.09
68609;SHT31;55581;46.718;7.690;2023-03-03T22:35:29;2.68;84.06
68609;SHT31;55581;46.718;7.690;2023-03-03T22:38:00;2.74;84.33
68609;SHT31;55581;46.718;7.690;2023-03-03T22:40:27;2.81;84.15
68609;SHT31;55581;46.718;7.690;2023-03-03T22:42:58;2.95;83.34
68609;SHT31;55581;46.718;7.690;2023-03-03T22:45:23;3.05;83.13
68609;SHT31;55581;46.718;7.690;2023-03-03T22:47:52;3.04;83.38
68609;SHT31;55581;46.718;7.690;2023-03-03T22:50:22;2.99;83.79
68609;SHT31;55581;46.718;7.690;2023-03-03T22:52:54;3.02;83.73
68609;SHT31;55581;46.718;7.690;2023-03-03T22:55:23;3.06;83.24
68609;SHT31;55581;46.718;7.690;2023-03-03T22:57:52;3.12;83.29
68609;SHT31;55581;46.718;7.690;2023-03-03T23:00:27;3.15;83.16
68609;SHT31;55581;46.718;7.690;2023-03-03T23:03:01;3.16;83.55
68609;SHT31;55581;46.718;7.690;2023-03-03T23:05:31;3.19;83.70
68609;SHT31;55581;46.718;7.690;2023-03-03T23:08:05;3.23;83.73
68609;SHT31;55581;46.718;7.690;2023-03-03T23:10:32;3.27;83.78
68609;SHT31;55581;46.718;7.690;2023-03-03T23:13:00;3.30;84.20
68609;SHT31;55581;46.718;7.690;2023-03-03T23:15:27;3.32;84.28
68609;SHT31;55581;46.718;7.690;2023-03-03T23:17:58;3.36;84.04
68609;SHT31;55581;46.718;7.690;2023-03-03T23:20:31;3.40;83.97